Liphook, United Kingdom
Current Conditions -  °F | °C
As of 12:50 AM on Monday 22 Dec 2014 (Local Time) from EGVO Reporting Station
Overcast Overcast  
Wind Chill: 11°   Ceiling: 600
Heat Index: 11°   Visibility: 6mi
Dew Point:   Wind: 23mph
Humidity: 88%   Direction: 220°SW
Pressure: 30.15"   Gusts: NA
Location:  51.08°N, 0.8°W
Report Text: EGVO 220050Z AUTO 22020KT 9999 OVC006/// 11/09 Q1021
Loading
Personal Weather Stations






























Interactive Weather Map New forecast layout! Learn more

10-Day Weather Forecast

Advertisements
Track Severe Weather on mobile